createdAt,value
2022-10-29T00:00:01.375Z,8.65
2022-10-29T00:02:37.106Z,8.23
2022-10-29T00:05:04.741Z,8.63
2022-10-29T00:07:32.100Z,7.80
2022-10-29T00:09:59.445Z,8.00
2022-10-29T00:12:27.596Z,6.03
2022-10-29T00:14:54.935Z,5.38
2022-10-29T00:17:22.609Z,5.70
2022-10-29T00:19:50.095Z,5.90
2022-10-29T00:22:17.435Z,4.38
2022-10-29T00:24:44.798Z,4.50
2022-10-29T00:27:12.117Z,5.07
2022-10-29T00:29:39.469Z,5.75
2022-10-29T00:32:08.016Z,5.38
2022-10-29T00:34:35.441Z,4.60
2022-10-29T00:37:04.096Z,4.70
2022-10-29T00:39:33.408Z,5.72
2022-10-29T00:42:01.978Z,4.55
2022-10-29T00:44:38.819Z,4.47
2022-10-29T00:47:28.812Z,4.18
2022-10-29T00:50:25.559Z,4.60
2022-10-29T00:52:54.442Z,3.75
2022-10-29T00:55:21.907Z,3.95
2022-10-29T00:57:53.077Z,4.53
2022-10-29T01:00:21.828Z,3.42
2022-10-29T01:02:50.572Z,3.67
2022-10-29T01:05:21.902Z,4.30
2022-10-29T01:07:49.312Z,4.00
2022-10-29T01:10:17.770Z,5.07
2022-10-29T01:12:54.342Z,4.75
2022-10-29T01:15:34.647Z,5.80
2022-10-29T01:18:20.489Z,5.40
2022-10-29T01:20:59.790Z,5.57
2022-10-29T01:23:45.647Z,5.55
2022-10-29T01:26:50.155Z,7.05
2022-10-29T01:29:54.888Z,6.55
2022-10-29T01:32:36.502Z,6.47
2022-10-29T01:35:19.690Z,5.82
2022-10-29T01:37:54.384Z,6.75
2022-10-29T01:40:49.230Z,6.53
2022-10-29T01:43:31.532Z,6.32
2022-10-29T01:46:06.393Z,5.65
2022-10-29T01:48:38.351Z,6.47
2022-10-29T01:51:11.966Z,6.20
2022-10-29T01:53:39.925Z,6.50
2022-10-29T01:56:07.562Z,6.32
2022-10-29T01:58:38.075Z,5.47
2022-10-29T02:01:18.196Z,5.88
2022-10-29T02:04:24.398Z,5.60
2022-10-29T02:07:33.014Z,5.25
2022-10-29T02:10:15.336Z,5.80
2022-10-29T02:12:53.806Z,5.18
2022-10-29T02:15:36.008Z,4.88
2022-10-29T02:18:06.032Z,5.35
2022-10-29T02:20:33.595Z,5.40
2022-10-29T02:23:02.262Z,4.70
2022-10-29T02:25:29.690Z,4.40
2022-10-29T02:27:59.608Z,4.57
2022-10-29T02:30:26.995Z,3.83
2022-10-29T02:32:54.577Z,4.00
2022-10-29T02:35:22.216Z,4.47
2022-10-29T02:37:49.629Z,3.85
2022-10-29T02:40:16.964Z,3.38
2022-10-29T02:42:44.295Z,3.55
2022-10-29T02:45:11.653Z,3.10
2022-10-29T02:47:38.924Z,2.97
2022-10-29T02:50:06.797Z,3.00
2022-10-29T02:52:34.125Z,4.00
2022-10-29T02:55:01.474Z,3.67
2022-10-29T02:57:28.751Z,3.53
2022-10-29T02:59:56.185Z,3.00
2022-10-29T03:02:23.654Z,3.55
2022-10-29T03:04:50.990Z,3.42
2022-10-29T03:07:18.302Z,3.40
2022-10-29T03:09:45.602Z,3.75
2022-10-29T03:12:13.010Z,3.67
2022-10-29T03:14:40.291Z,3.15
2022-10-29T03:17:07.582Z,3.80
2022-10-29T03:19:34.941Z,3.97
2022-10-29T03:22:02.244Z,4.45
2022-10-29T03:24:29.611Z,3.88
2022-10-29T03:26:56.782Z,4.60
2022-10-29T03:29:24.688Z,4.20
2022-10-29T03:31:52.157Z,3.72
2022-10-29T03:34:19.507Z,3.85
2022-10-29T03:36:46.876Z,4.22
2022-10-29T03:39:14.194Z,3.47
2022-10-29T03:41:41.737Z,3.75
2022-10-29T03:44:09.462Z,3.35
2022-10-29T03:46:36.871Z,3.40
2022-10-29T03:49:04.196Z,3.78
2022-10-29T03:51:31.516Z,3.17
2022-10-29T03:53:58.793Z,3.45
2022-10-29T03:56:26.050Z,3.45
2022-10-29T03:58:53.307Z,3.17
2022-10-29T04:01:23.389Z,3.42
2022-10-29T04:03:50.857Z,2.97
2022-10-29T04:06:18.556Z,2.55
2022-10-29T04:08:45.999Z,2.72
2022-10-29T04:11:14.406Z,2.40
2022-10-29T04:13:41.683Z,2.80
2022-10-29T04:16:09.285Z,3.08
2022-10-29T04:18:36.650Z,2.85
2022-10-29T04:27:24.787Z,3.10
2022-10-29T04:29:26.579Z,3.67
2022-10-29T04:31:53.932Z,3.67
2022-10-29T04:34:21.233Z,3.45
2022-10-29T04:36:48.551Z,3.65
2022-10-29T04:39:18.358Z,3.90
2022-10-29T04:41:49.931Z,3.70
2022-10-29T04:44:17.310Z,3.35
2022-10-29T04:46:44.708Z,2.72
2022-10-29T04:49:12.045Z,3.10
2022-10-29T04:51:39.785Z,2.88
2022-10-29T04:54:07.178Z,2.58
2022-10-29T04:56:34.553Z,2.95
2022-10-29T04:59:02.093Z,2.80
2022-10-29T05:01:31.916Z,3.20
2022-10-29T05:04:00.200Z,3.28
2022-10-29T05:06:27.781Z,2.70
2022-10-29T05:08:55.093Z,2.70
2022-10-29T05:11:22.525Z,2.83
2022-10-29T05:13:49.995Z,3.03
2022-10-29T05:16:17.339Z,2.38
2022-10-29T05:18:47.573Z,2.83
2022-10-29T05:21:17.094Z,2.13
2022-10-29T05:23:44.520Z,2.70
2022-10-29T05:26:11.727Z,2.75
2022-10-29T05:28:39.103Z,2.47
2022-10-29T05:31:06.541Z,2.55
2022-10-29T05:33:33.876Z,2.60
2022-10-29T05:36:01.586Z,2.50
2022-10-29T05:38:28.987Z,2.42
2022-10-29T05:40:58.940Z,2.45
2022-10-29T05:43:26.292Z,2.75
2022-10-29T05:45:54.010Z,2.67
2022-10-29T05:48:21.303Z,2.78
2022-10-29T05:50:48.548Z,2.90
2022-10-29T05:53:15.941Z,2.75
2022-10-29T05:55:43.438Z,2.70
2022-10-29T05:58:13.933Z,2.80
2022-10-29T06:00:44.967Z,2.95
2022-10-29T06:03:14.999Z,2.70
2022-10-29T06:05:42.884Z,3.22
2022-10-29T06:08:11.365Z,5.40
2022-10-29T06:10:38.684Z,5.80
2022-10-29T06:13:33.228Z,5.15
2022-10-29T06:16:01.291Z,5.05
2022-10-29T06:18:28.777Z,6.80
2022-10-29T06:20:59.158Z,6.97
2022-10-29T06:23:27.157Z,10.25
2022-10-29T06:25:54.624Z,9.50
2022-10-29T06:28:22.019Z,8.75
2022-10-29T06:30:50.633Z,9.32
2022-10-29T06:33:18.964Z,11.32
2022-10-29T06:35:46.988Z,11.02
2022-10-29T06:38:14.988Z,19.55
2022-10-29T06:40:43.651Z,15.07
2022-10-29T06:43:12.890Z,9.57
2022-10-29T06:45:40.400Z,9.27
2022-10-29T06:48:07.837Z,6.80
2022-10-29T06:50:35.177Z,8.75
2022-10-29T06:53:07.306Z,7.30
2022-10-29T06:55:36.328Z,7.68
2022-10-29T06:58:11.199Z,5.28
2022-10-29T07:00:38.713Z,4.70
2022-10-29T07:03:08.687Z,5.20
2022-10-29T07:05:36.592Z,4.43
2022-10-29T07:08:04.090Z,4.70
2022-10-29T07:10:33.273Z,3.70
2022-10-29T07:13:01.459Z,3.17
2022-10-29T07:15:30.863Z,3.45
2022-10-29T07:18:07.274Z,3.60
2022-10-29T07:20:42.672Z,3.35
2022-10-29T07:23:11.312Z,3.42
2022-10-29T07:25:40.047Z,3.50
2022-10-29T07:28:18.697Z,3.58
2022-10-29T07:30:46.065Z,3.85
2022-10-29T07:33:13.572Z,3.75
2022-10-29T07:35:41.216Z,5.25
2022-10-29T07:38:11.487Z,6.70
2022-10-29T07:40:41.154Z,5.50
2022-10-29T07:43:09.712Z,4.88
2022-10-29T07:45:37.269Z,4.10
2022-10-29T07:48:10.581Z,4.05
2022-10-29T07:50:39.482Z,4.80
2022-10-29T07:53:07.855Z,4.78
2022-10-29T07:55:35.724Z,4.53
2022-10-29T07:58:06.048Z,5.10
2022-10-29T08:00:35.911Z,5.30
2022-10-29T08:03:03.550Z,5.05
2022-10-29T08:05:31.721Z,4.32
2022-10-29T08:08:00.320Z,4.57
2022-10-29T08:10:28.937Z,5.47
2022-10-29T08:12:58.695Z,4.68
2022-10-29T08:15:28.309Z,4.80
2022-10-29T08:17:56.222Z,5.50
2022-10-29T08:20:26.373Z,4.80
2022-10-29T08:22:54.136Z,4.50
2022-10-29T08:25:22.057Z,4.05
2022-10-29T08:28:00.607Z,4.22
2022-10-29T08:30:28.562Z,3.92
2022-10-29T08:32:56.276Z,3.83
2022-10-29T08:35:24.298Z,3.65
2022-10-29T08:37:52.027Z,3.65
2022-10-29T08:40:47.209Z,4.20
2022-10-29T08:43:27.094Z,5.13
2022-10-29T08:45:56.244Z,5.20
2022-10-29T08:48:48.272Z,4.72
2022-10-29T08:51:31.125Z,5.43
2022-10-29T08:56:56.306Z,5.43
2022-10-29T08:59:26.947Z,5.28
2022-10-29T09:01:54.586Z,5.35
2022-10-29T09:04:33.409Z,4.57
2022-10-29T09:07:09.629Z,4.18
2022-10-29T09:10:04.692Z,5.03
2022-10-29T09:12:56.065Z,4.55
2022-10-29T09:15:37.580Z,4.65
2022-10-29T09:18:26.080Z,3.95
2022-10-29T09:21:16.077Z,4.70
2022-10-29T09:24:05.670Z,5.38
2022-10-29T09:27:00.275Z,4.25
2022-10-29T09:29:53.913Z,4.57
2022-10-29T09:32:52.701Z,4.80
2022-10-29T09:35:23.489Z,4.75
2022-10-29T09:37:58.684Z,5.53
2022-10-29T09:40:37.534Z,5.32
2022-10-29T09:43:40.430Z,4.95
2022-10-29T09:46:19.688Z,5.20
2022-10-29T09:48:57.479Z,3.97
2022-10-29T09:51:44.311Z,3.60
2022-10-29T09:54:12.253Z,3.60
2022-10-29T09:56:43.297Z,3.58
2022-10-29T09:59:28.971Z,3.22
2022-10-29T10:04:37.801Z,3.30
2022-10-29T10:07:13.427Z,3.95
2022-10-29T10:09:58.500Z,3.90
2022-10-29T10:12:29.318Z,4.22
2022-10-29T10:15:30.125Z,4.10
2022-10-29T10:18:01.325Z,3.97
2022-10-29T10:20:36.631Z,3.92
2022-10-29T10:23:27.598Z,4.30
2022-10-29T10:26:03.702Z,4.00
2022-10-29T10:28:37.036Z,3.83
2022-10-29T10:31:04.366Z,3.53
2022-10-29T10:33:35.127Z,2.25
2022-10-29T10:36:08.747Z,2.67
2022-10-29T10:38:45.658Z,2.30
2022-10-29T10:41:15.932Z,3.58
2022-10-29T10:43:48.224Z,3.53
2022-10-29T10:46:34.588Z,3.80
2022-10-29T10:49:18.342Z,3.78
2022-10-29T10:51:51.771Z,4.45
2022-10-29T10:54:34.569Z,4.70
2022-10-29T10:57:05.983Z,4.53
2022-10-29T11:00:00.967Z,4.88
2022-10-29T11:02:38.361Z,3.40
2022-10-29T11:05:12.350Z,4.03
2022-10-29T11:07:55.654Z,3.85
2022-10-29T11:10:31.137Z,2.90
2022-10-29T11:13:03.366Z,2.53
2022-10-29T11:15:48.273Z,2.72
2022-10-29T11:18:25.533Z,3.20
2022-10-29T11:21:05.767Z,3.28
2022-10-29T11:23:55.657Z,3.25
2022-10-29T11:26:28.721Z,3.00
2022-10-29T11:29:06.374Z,3.20
2022-10-29T11:31:45.529Z,2.92
2022-10-29T11:34:38.272Z,3.42
2022-10-29T11:37:28.301Z,3.22
2022-10-29T11:40:18.558Z,3.90
2022-10-29T11:42:48.392Z,2.97
2022-10-29T11:45:35.518Z,2.50
2022-10-29T11:48:16.534Z,2.40
2022-10-29T11:50:50.935Z,2.60
2022-10-29T11:53:34.363Z,3.08
2022-10-29T11:56:10.866Z,2.85
2022-10-29T11:59:01.797Z,2.67
2022-10-29T12:01:48.302Z,2.20
2022-10-29T12:04:24.123Z,2.40
2022-10-29T12:07:29.119Z,3.00
2022-10-29T12:10:15.048Z,2.97
2022-10-29T12:13:00.673Z,2.70
2022-10-29T12:15:32.603Z,3.00
2022-10-29T12:18:07.711Z,3.75
2022-10-29T12:23:38.216Z,2.85
2022-10-29T12:26:20.369Z,4.75
2022-10-29T12:29:03.496Z,2.92
2022-10-29T12:31:36.901Z,3.53
2022-10-29T12:34:30.553Z,4.22
2022-10-29T12:37:23.332Z,4.32
2022-10-29T12:39:58.203Z,4.00
2022-10-29T12:42:27.448Z,3.92
2022-10-29T12:45:19.546Z,3.60
2022-10-29T12:48:03.954Z,3.10
2022-10-29T12:51:00.102Z,3.40
2022-10-29T12:53:44.352Z,3.15
2022-10-29T12:56:16.423Z,3.55
2022-10-29T12:58:57.307Z,3.53
2022-10-29T13:01:50.201Z,3.25
2022-10-29T13:04:29.849Z,3.50
2022-10-29T13:07:07.494Z,3.20
2022-10-29T13:09:37.685Z,4.00
2022-10-29T13:12:12.458Z,4.30
2022-10-29T13:15:09.939Z,4.30
2022-10-29T13:17:40.560Z,3.92
2022-10-29T13:20:30.717Z,4.10
2022-10-29T13:23:05.189Z,4.07
2022-10-29T13:25:38.682Z,3.97
2022-10-29T13:28:14.870Z,3.60
2022-10-29T13:30:46.465Z,3.40
2022-10-29T13:33:31.324Z,2.88
2022-10-29T13:36:27.815Z,3.47
2022-10-29T13:39:05.840Z,3.30
2022-10-29T13:41:43.615Z,3.60
2022-10-29T13:44:13.806Z,3.53
2022-10-29T13:47:09.236Z,3.50
2022-10-29T13:49:45.952Z,4.00
2022-10-29T13:52:19.289Z,3.72
2022-10-29T13:54:59.346Z,3.47
2022-10-29T13:57:48.851Z,3.20
2022-10-29T14:00:22.423Z,3.13
2022-10-29T14:02:55.768Z,3.00
2022-10-29T14:05:52.543Z,2.90
2022-10-29T14:08:36.218Z,3.35
2022-10-29T14:11:12.997Z,3.65
2022-10-29T14:13:50.887Z,3.58
2022-10-29T14:16:21.899Z,3.35
2022-10-29T14:18:50.625Z,4.05
2022-10-29T14:21:23.675Z,4.40
2022-10-29T14:24:05.533Z,4.13
2022-10-29T14:26:38.803Z,3.80
2022-10-29T14:29:25.999Z,3.75
2022-10-29T14:32:12.409Z,4.07
2022-10-29T14:34:43.079Z,3.65
2022-10-29T14:37:32.156Z,3.83
2022-10-29T14:40:16.963Z,3.78
2022-10-29T14:42:48.043Z,4.07
2022-10-29T14:45:28.956Z,3.80
2022-10-29T14:47:58.965Z,4.43
2022-10-29T14:50:28.339Z,5.30
2022-10-29T14:53:06.832Z,5.45
2022-10-29T14:55:43.242Z,5.20
2022-10-29T14:58:10.530Z,6.03
2022-10-29T15:00:39.967Z,6.10
2022-10-29T15:03:08.239Z,6.72
2022-10-29T15:05:39.106Z,7.50
2022-10-29T15:08:13.422Z,8.65
2022-10-29T15:10:51.099Z,7.82
2022-10-29T15:13:37.460Z,7.13
2022-10-29T15:16:18.100Z,6.80
2022-10-29T15:18:54.459Z,6.85
2022-10-29T15:21:31.312Z,7.40
2022-10-29T15:24:09.307Z,7.82
2022-10-29T15:26:46.655Z,8.07
2022-10-29T15:29:14.335Z,8.63
2022-10-29T15:31:53.843Z,9.13
2022-10-29T15:34:35.341Z,9.35
2022-10-29T15:37:34.693Z,9.70
2022-10-29T15:40:07.260Z,10.10
2022-10-29T15:42:36.903Z,9.98
2022-10-29T15:47:53.560Z,10.23
2022-10-29T15:50:24.587Z,11.65
2022-10-29T15:53:02.134Z,10.57
2022-10-29T15:55:32.689Z,12.00
2022-10-29T15:58:07.099Z,12.75
2022-10-29T16:00:37.860Z,13.38
2022-10-29T16:03:14.202Z,13.43
2022-10-29T16:05:43.270Z,11.25
2022-10-29T16:08:33.723Z,12.40
2022-10-29T16:11:05.446Z,11.05
2022-10-29T16:13:33.187Z,10.85
2022-10-29T16:16:00.755Z,11.27
2022-10-29T16:18:30.235Z,11.48
2022-10-29T16:21:01.120Z,11.50
2022-10-29T16:23:28.589Z,11.82
2022-10-29T16:25:56.163Z,11.07
2022-10-29T16:28:23.443Z,12.88
2022-10-29T16:30:56.893Z,12.68
2022-10-29T16:33:24.449Z,14.02
2022-10-29T16:35:53.848Z,13.70
2022-10-29T16:38:21.309Z,13.07
2022-10-29T16:40:48.669Z,12.85
2022-10-29T16:43:16.021Z,14.05
2022-10-29T16:45:46.298Z,15.23
2022-10-29T16:48:15.628Z,15.07
2022-10-29T16:50:44.039Z,15.40
2022-10-29T16:53:13.124Z,14.27
2022-10-29T16:55:42.760Z,15.40
2022-10-29T16:58:14.069Z,14.98
2022-10-29T17:00:45.020Z,15.25
2022-10-29T17:03:14.298Z,16.77
2022-10-29T17:05:45.073Z,15.68
2022-10-29T17:08:12.941Z,17.98
2022-10-29T17:10:40.401Z,16.75
2022-10-29T17:13:09.213Z,17.65
2022-10-29T17:15:39.945Z,15.43
2022-10-29T17:18:11.642Z,12.85
2022-10-29T17:20:43.068Z,12.63
2022-10-29T17:23:10.451Z,13.65
2022-10-29T17:25:40.558Z,22.55
2022-10-29T17:28:07.910Z,12.52
2022-10-29T17:30:42.362Z,19.55
2022-10-29T17:33:10.294Z,11.95
2022-10-29T17:35:37.643Z,13.85
2022-10-29T17:38:05.219Z,14.23
2022-10-29T17:40:32.604Z,14.40
2022-10-29T17:43:00.159Z,14.45
2022-10-29T17:45:27.836Z,11.88
2022-10-29T17:47:59.393Z,11.48
2022-10-29T17:50:27.588Z,10.60
2022-10-29T17:52:58.097Z,11.82
2022-10-29T17:55:25.579Z,11.85
2022-10-29T17:57:53.045Z,10.80
2022-10-29T18:00:20.818Z,10.77
2022-10-29T18:02:51.750Z,7.95
2022-10-29T18:05:19.510Z,8.05
2022-10-29T18:07:46.851Z,8.35
2022-10-29T18:10:14.318Z,8.63
2022-10-29T18:12:43.340Z,9.43
2022-10-29T18:15:10.806Z,9.68
2022-10-29T18:17:40.770Z,8.00
2022-10-29T18:20:08.600Z,7.95
2022-10-29T18:22:36.755Z,8.50
2022-10-29T18:25:04.737Z,8.02
2022-10-29T18:27:32.205Z,7.70
2022-10-29T18:30:00.942Z,7.63
2022-10-29T18:32:29.659Z,8.57
2022-10-29T18:34:57.940Z,8.57
2022-10-29T18:37:25.281Z,9.07
2022-10-29T18:39:53.877Z,8.75
2022-10-29T18:42:21.163Z,8.80
2022-10-29T18:44:49.489Z,6.32
2022-10-29T18:47:18.080Z,6.78
2022-10-29T18:49:45.454Z,5.40
2022-10-29T18:52:13.020Z,5.03
2022-10-29T18:54:41.241Z,5.70
2022-10-29T18:57:08.665Z,5.57
2022-10-29T18:59:36.150Z,5.35
2022-10-29T19:02:03.611Z,5.80
2022-10-29T19:04:31.135Z,5.90
2022-10-29T19:06:59.795Z,5.72
2022-10-29T19:09:29.789Z,5.35
2022-10-29T19:11:59.475Z,5.65
2022-10-29T19:14:27.216Z,5.70
2022-10-29T19:16:54.789Z,5.50
2022-10-29T19:19:23.947Z,6.88
2022-10-29T19:21:51.859Z,5.72
2022-10-29T19:24:20.017Z,6.82
2022-10-29T19:26:47.640Z,6.20
2022-10-29T19:29:15.612Z,6.40
2022-10-29T19:31:48.219Z,6.85
2022-10-29T19:34:15.688Z,6.72
2022-10-29T19:36:43.378Z,6.63
2022-10-29T19:39:10.951Z,5.82
2022-10-29T19:41:38.436Z,6.15
2022-10-29T19:44:06.977Z,6.43
2022-10-29T19:46:35.449Z,6.35
2022-10-29T19:49:03.880Z,5.57
2022-10-29T19:51:31.185Z,6.30
2022-10-29T19:54:01.692Z,5.50
2022-10-29T19:56:31.479Z,6.88
2022-10-29T19:58:58.820Z,6.82
2022-10-29T20:01:27.017Z,6.80
2022-10-29T20:03:54.619Z,6.93
2022-10-29T20:06:22.121Z,7.35
2022-10-29T20:08:49.458Z,8.73
2022-10-29T20:11:17.066Z,11.05
2022-10-29T20:13:44.479Z,12.60
2022-10-29T20:16:15.848Z,10.82
2022-10-29T20:18:43.641Z,12.13
2022-10-29T20:21:12.244Z,12.70
2022-10-29T20:23:39.986Z,12.55
2022-10-29T20:26:08.427Z,14.13
2022-10-29T20:28:35.973Z,14.27
2022-10-29T20:31:13.542Z,12.93
2022-10-29T20:33:40.834Z,13.50
2022-10-29T20:36:08.788Z,13.10
2022-10-29T20:38:36.244Z,12.57
2022-10-29T20:41:03.687Z,11.55
2022-10-29T20:43:31.147Z,11.32
2022-10-29T20:46:02.557Z,19.60
2022-10-29T20:48:30.891Z,31.10
2022-10-29T20:50:59.070Z,12.18
2022-10-29T20:53:26.548Z,11.25
2022-10-29T20:55:53.889Z,10.45
2022-10-29T20:58:22.470Z,11.07
2022-10-29T21:00:50.591Z,11.63
2022-10-29T21:03:20.091Z,11.95
2022-10-29T21:05:49.189Z,10.75
2022-10-29T21:08:16.864Z,11.85
2022-10-29T21:10:44.273Z,10.93
2022-10-29T21:13:11.744Z,10.82
2022-10-29T21:15:39.077Z,11.38
2022-10-29T21:18:07.435Z,10.68
2022-10-29T21:20:46.020Z,11.48
2022-10-29T21:23:13.585Z,10.85
2022-10-29T21:25:41.027Z,11.10
2022-10-29T21:28:08.382Z,10.98
2022-10-29T21:30:36.806Z,11.05
2022-10-29T21:33:04.293Z,10.48
2022-10-29T21:35:31.756Z,11.13
2022-10-29T21:37:59.500Z,10.90
2022-10-29T21:40:27.038Z,12.02
2022-10-29T21:42:54.725Z,10.95
2022-10-29T21:45:22.343Z,11.10
2022-10-29T21:47:49.954Z,12.15
2022-10-29T21:50:17.436Z,11.73
2022-10-29T21:52:44.770Z,11.20
2022-10-29T21:55:12.022Z,9.73
2022-10-29T21:57:46.969Z,11.07
2022-10-29T22:00:16.625Z,13.07
2022-10-29T22:02:43.990Z,13.00
2022-10-29T22:05:14.497Z,15.75
2022-10-29T22:07:41.841Z,17.17
2022-10-29T22:10:10.166Z,18.27
2022-10-29T22:12:37.837Z,18.00
2022-10-29T22:15:06.261Z,20.15
2022-10-29T22:17:33.879Z,19.83
2022-10-29T22:20:01.200Z,14.82
2022-10-29T22:22:36.028Z,13.88
2022-10-29T22:25:05.580Z,9.00
2022-10-29T22:27:32.924Z,9.40
2022-10-29T22:30:00.280Z,10.35
2022-10-29T22:32:28.720Z,10.98
2022-10-29T22:34:57.027Z,9.88
2022-10-29T22:37:24.362Z,10.65
2022-10-29T22:39:52.691Z,10.55
2022-10-29T22:42:19.976Z,12.35
2022-10-29T22:44:47.359Z,11.73
2022-10-29T22:47:14.618Z,12.00
2022-10-29T22:49:41.987Z,12.30
2022-10-29T22:52:09.406Z,11.07
2022-10-29T22:54:39.245Z,12.30
2022-10-29T22:57:06.625Z,10.35
2022-10-29T22:59:34.105Z,7.30
2022-10-29T23:02:01.777Z,10.60
2022-10-29T23:04:29.237Z,8.40
2022-10-29T23:07:01.610Z,8.30
2022-10-29T23:09:29.317Z,7.60
2022-10-29T23:11:56.801Z,7.88
2022-10-29T23:14:25.130Z,7.78
2022-10-29T23:16:53.852Z,7.22
2022-10-29T23:19:21.231Z,7.50
2022-10-29T23:21:49.453Z,5.82
2022-10-29T23:24:16.882Z,5.32
2022-10-29T23:26:44.202Z,8.88
2022-10-29T23:29:11.661Z,8.20
2022-10-29T23:31:39.004Z,9.70
2022-10-29T23:34:07.582Z,8.95
2022-10-29T23:36:34.965Z,8.98
2022-10-29T23:39:03.138Z,8.13
2022-10-29T23:41:31.736Z,8.00
2022-10-29T23:44:00.560Z,8.75
2022-10-29T23:46:27.970Z,8.05
2022-10-29T23:48:55.382Z,8.90
2022-10-29T23:51:23.747Z,9.65
2022-10-29T23:53:54.718Z,9.48
2022-10-29T23:56:25.207Z,8.23
2022-10-29T23:58:52.944Z,7.90
